KSPF/SPF METAR and TAF weather

Enter ICAO airport designator
Station Type Date Time Source
KSPF METAR 2018/12/11 20:15 UTC NOAA

KSPF 112015Z AUTO 28012G18KT 10SM CLR 03/M05 A2993 RMK AO2 PWINO


Station Type Date Time Source
KSPF Decoded METAR 2018/12/11 20:15 UTC NOAA

Spearfish / Clyde Ice, SD, United States (KSPF) 44-29N 103-47W
Dec 11, 2018 - 03:15 PM EST / 2018.12.11 2015 UTC
Wind: from the W (280 degrees) at 14 MPH (12 KT) gusting to 21 MPH (18 KT):0
Visibility: 10 mile(s):0
Sky conditions: clear
Temperature: 37 F (3 C)
Dew Point: 23 F (-5 C)
Relative Humidity: 55%
Pressure (altimeter): 29.93 in. Hg (1013 hPa)
ob: KSPF 112015Z AUTO 28012G18KT 10SM CLR 03/M05 A2993 RMK AO2 PWINO
cycle: 20

Station Type Date Time Source
KSPF TAF UTC NOAA

Error!


Example: see airport list